Time;durP1;ratioP1;P1;durP2;ratioP2;P2;SDS_P1;SDS_P2;PMS_P1;PMS_P2;Temp;Humidity;BMP_temperature;BMP_pressure;BME280_temperature;BME280_humidity;BME280_pressure;Samples;Min_cycle;Max_cycle;Signal;HPM_P1;HPM_P2
2023/07/15 00:01:29;;;;;;;0.10;0.10;;;;;;;16.92;79.30;98496.91;7351931;19;20020;-64
2023/07/15 00:03:55;;;;;;;0.10;0.10;;;;;;;16.91;79.90;98513.69;7349435;19;20042;-64
2023/07/15 00:06:23;;;;;;;0.10;0.10;;;;;;;16.91;79.88;98500.50;7353512;19;20018;-64
2023/07/15 00:08:49;;;;;;;;;;;;;;;16.95;79.15;98505.41;7351107;19;20015;-64
2023/07/15 00:11:28;;;;;;;0.00;0.00;;;;;;;16.94;79.38;98519.53;7346957;19;19945;-64
2023/07/15 00:13:54;;;;;;;0.10;0.10;;;;;;;16.92;79.92;98491.63;7348830;19;20379;-63
2023/07/15 00:16:20;;;;;;;0.10;0.10;;;;;;;16.81;79.85;98477.53;7356759;19;20577;-63
2023/07/15 00:18:47;;;;;;;0.10;0.10;;;;;;;16.93;79.58;98501.19;7353255;19;20016;-64
2023/07/15 00:21:25;;;;;;;0.10;0.10;;;;;;;16.91;79.42;98487.31;7352150;19;20518;-63
2023/07/15 00:23:55;;;;;;;0.10;0.10;;;;;;;16.95;79.72;98494.00;7349181;19;20357;-64
2023/07/15 00:26:34;;;;;;;0.10;0.10;;;;;;;16.92;79.68;98488.97;7347836;19;20013;-64
2023/07/15 00:29:01;;;;;;;0.10;0.10;;;;;;;16.96;79.23;98491.25;7353444;19;20010;-64
2023/07/15 00:31:27;;;;;;;0.10;0.10;;;;;;;16.94;79.51;98497.63;7354601;19;20943;-63
2023/07/15 00:33:53;;;;;;;0.10;0.10;;;;;;;16.95;79.62;98507.19;7354923;19;20027;-64
2023/07/15 00:36:19;;;;;;;0.10;0.10;;;;;;;16.94;79.79;98502.91;7351209;19;20010;-63
2023/07/15 00:38:44;;;;;;;0.10;0.10;;;;;;;16.90;79.31;98497.03;7354202;19;20034;-64
2023/07/15 00:41:19;;;;;;;0.10;0.10;;;;;;;16.99;79.21;98506.81;7355237;19;20014;-63
2023/07/15 00:46:19;;;;;;;0.10;0.10;;;;;;;16.96;79.27;98498.31;7352586;19;20015;-63
2023/07/15 00:49:09;;;;;;;0.10;0.10;;;;;;;17.01;79.19;98509.31;7359565;19;20040;-64
2023/07/15 00:51:38;;;;;;;0.10;0.10;;;;;;;16.98;79.53;98504.28;7259108;19;2004510;-64
2023/07/15 00:54:05;;;;;;;0.10;0.10;;;;;;;16.92;79.20;98497.72;7360017;19;20362;-63
2023/07/15 00:56:37;;;;;;;0.10;0.10;;;;;;;17.00;79.51;98512.91;7355745;19;20025;-63
2023/07/15 00:59:03;;;;;;;0.10;0.10;;;;;;;16.96;79.17;98496.50;7362521;19;20010;-63
2023/07/15 01:01:29;;;;;;;0.10;0.10;;;;;;;16.93;79.56;98499.44;7359008;19;20780;-63
2023/07/15 01:03:56;;;;;;;0.03;0.03;;;;;;;16.95;79.25;98494.00;7358832;19;20010;-63
2023/07/15 01:06:22;;;;;;;0.10;0.10;;;;;;;16.96;79.14;98500.94;7360325;19;20006;-64
2023/07/15 01:08:47;;;;;;;0.10;0.10;;;;;;;16.96;79.20;98495.69;7358529;19;21077;-63
2023/07/15 01:11:13;;;;;;;0.10;0.10;;;;;;;16.89;79.03;98484.00;7357523;19;20037;-63
2023/07/15 01:13:39;;;;;;;0.10;0.10;;;;;;;16.91;79.22;98488.16;7358999;19;20086;-63
2023/07/15 01:16:05;;;;;;;0.15;0.15;;;;;;;16.76;79.01;98471.81;7358766;19;20062;-63
2023/07/15 01:18:31;;;;;;;0.10;0.10;;;;;;;16.90;79.30;98501.47;7359784;19;20014;-63
2023/07/15 01:20:59;;;;;;;0.10;0.10;;;;;;;16.82;78.74;98487.13;7357887;19;20018;-63
2023/07/15 01:23:29;;;;;;;0.10;0.10;;;;;;;16.85;78.98;98489.50;7363216;19;20025;-63
2023/07/15 01:25:55;;;;;;;0.05;0.05;;;;;;;16.84;79.13;98487.00;7357753;19;20017;-63
2023/07/15 01:28:21;;;;;;;0.10;0.10;;;;;;;16.82;78.76;98489.75;7359866;19;20024;-63
2023/07/15 01:30:47;;;;;;;0.10;0.10;;;;;;;16.79;79.26;98492.66;7359282;19;20016;-63
2023/07/15 01:33:15;;;;;;;0.10;0.10;;;;;;;16.78;78.82;98492.78;7360454;19;20014;-63
2023/07/15 01:35:46;;;;;;;0.00;0.00;;;;;;;16.78;79.14;98488.34;7356548;19;20006;-64
2023/07/15 01:38:11;;;;;;;0.10;0.10;;;;;;;16.72;78.95;98490.66;7358452;19;20017;-63
2023/07/15 01:40:37;;;;;;;0.10;0.10;;;;;;;16.72;78.99;98488.84;7358415;19;20019;-64
2023/07/15 01:43:04;;;;;;;0.10;0.10;;;;;;;16.72;78.94;98480.94;7359639;19;20010;-63
2023/07/15 01:45:30;;;;;;;0.10;0.10;;;;;;;16.69;79.04;98478.53;7355041;19;20034;-63
2023/07/15 01:47:55;;;;;;;0.10;0.10;;;;;;;16.67;78.69;98475.19;7359746;19;20022;-63
2023/07/15 01:50:21;;;;;;;0.10;0.10;;;;;;;16.67;78.66;98464.66;7351340;19;20785;-63
2023/07/15 01:52:46;;;;;;;0.10;0.10;;;;;;;16.66;79.03;98460.34;7359416;19;20050;-63
2023/07/15 01:55:12;;;;;;;0.10;0.10;;;;;;;16.67;78.72;98462.00;7354710;19;20082;-63
2023/07/15 01:57:37;;;;;;;0.00;0.00;;;;;;;16.66;78.52;98462.97;7354176;19;20014;-63
2023/07/15 02:00:05;;;;;;;0.10;0.10;;;;;;;16.66;78.97;98451.59;7357595;19;20007;-64
2023/07/15 02:02:30;;;;;;;0.10;0.10;;;;;;;16.68;78.92;98455.81;7357471;19;20736;-63
2023/07/15 02:04:56;;;;;;;0.10;0.10;;;;;;;16.68;79.14;98461.06;7359463;19;20769;-63
2023/07/15 02:07:22;;;;;;;0.10;0.10;;;;;;;16.70;79.07;98453.03;7350993;19;20321;-63
2023/07/15 02:09:48;;;;;;;0.10;0.10;;;;;;;16.69;79.16;98444.28;7353855;19;20022;-63
2023/07/15 02:12:13;;;;;;;0.10;0.10;;;;;;;16.57;78.59;98425.06;7352996;19;20094;-63
2023/07/15 02:14:39;;;;;;;0.00;0.00;;;;;;;16.73;78.94;98444.91;7356502;19;20012;-63
2023/07/15 02:17:05;;;;;;;0.10;0.10;;;;;;;16.74;79.19;98433.41;7352039;19;20014;-63
2023/07/15 02:19:31;;;;;;;0.10;0.10;;;;;;;16.73;78.50;98427.28;7355845;19;20006;-64
2023/07/15 02:21:57;;;;;;;0.10;0.10;;;;;;;16.76;78.99;98431.44;7357226;19;20037;-63
2023/07/15 02:24:22;;;;;;;0.10;0.10;;;;;;;16.77;79.20;98433.94;7356739;19;20026;-64
2023/07/15 02:26:48;;;;;;;0.10;0.10;;;;;;;16.78;78.92;98435.66;7358093;19;20774;-63
2023/07/15 02:29:13;;;;;;;0.10;0.10;;;;;;;16.80;78.74;98423.16;7356348;19;20772;-63
2023/07/15 02:31:38;;;;;;;0.10;0.10;;;;;;;16.81;78.62;98431.91;7355653;19;20070;-63
2023/07/15 02:34:04;;;;;;;0.10;0.10;;;;;;;16.81;78.25;98429.25;7359218;19;20054;-64
2023/07/15 02:36:30;;;;;;;0.10;0.10;;;;;;;16.82;77.93;98428.28;7353792;19;20011;-63
2023/07/15 02:38:55;;;;;;;0.10;0.10;;;;;;;16.81;78.08;98421.34;7359319;19;20015;-63
2023/07/15 02:41:21;;;;;;;0.00;0.00;;;;;;;16.81;78.37;98424.81;7355792;19;20037;-63
2023/07/15 02:43:46;;;;;;;0.10;0.10;;;;;;;16.82;78.26;98426.50;7358332;19;20010;-63
2023/07/15 02:46:12;;;;;;;0.10;0.10;;;;;;;16.83;78.04;98424.72;7354086;19;20297;-63
2023/07/15 02:48:37;;;;;;;0.10;0.10;;;;;;;16.83;78.15;98428.19;7357111;19;20013;-63
2023/07/15 02:51:02;;;;;;;0.10;0.10;;;;;;;16.83;78.21;98428.19;7355221;19;20017;-63
2023/07/15 02:53:28;;;;;;;0.10;0.10;;;;;;;16.85;77.75;98436.78;7356336;19;20106;-63
2023/07/15 02:55:54;;;;;;;0.10;0.10;;;;;;;16.84;78.09;98429.84;7348281;19;20851;-63
2023/07/15 02:58:22;;;;;;;0.10;0.10;;;;;;;16.84;77.88;98440.38;7355307;19;20007;-63
2023/07/15 03:00:52;;;;;;;0.10;0.10;;;;;;;16.88;77.59;98429.56;7357293;19;20002;-63
2023/07/15 03:03:18;;;;;;;0.10;0.10;;;;;;;16.77;77.47;98418.13;7355261;19;20039;-63
2023/07/15 03:05:47;;;;;;;0.05;0.05;;;;;;;16.77;77.82;98398.84;7358291;19;20002;-63
2023/07/15 03:08:12;;;;;;;0.10;0.10;;;;;;;16.84;77.28;98416.66;7356528;19;20822;-63
2023/07/15 03:10:38;;;;;;;0.10;0.10;;;;;;;16.82;77.14;98415.94;7352788;19;20018;-63
2023/07/15 03:13:04;;;;;;;0.00;0.00;;;;;;;16.86;77.45;98416.53;7349721;19;20046;-63
2023/07/15 03:15:30;;;;;;;0.10;0.10;;;;;;;16.85;77.46;98399.06;7353435;19;20360;-63
2023/07/15 03:17:56;;;;;;;0.10;0.10;;;;;;;16.84;77.06;98397.38;7349422;19;20081;-63
2023/07/15 03:20:22;;;;;;;0.10;0.10;;;;;;;16.83;77.04;98390.44;7345578;19;20037;-63
2023/07/15 03:22:51;;;;;;;0.10;0.10;;;;;;;16.78;77.26;98384.72;7357987;19;20015;-63
2023/07/15 03:25:19;;;;;;;0.10;0.10;;;;;;;16.81;76.77;98387.91;7355860;19;20011;-62
2023/07/15 03:27:45;;;;;;;0.10;0.10;;;;;;;16.79;76.64;98387.22;7353158;19;22004;-61
2023/07/15 03:30:10;;;;;;;0.10;0.10;;;;;;;16.76;76.41;98390.13;7358303;19;20030;-63
2023/07/15 03:32:38;;;;;;;0.10;0.10;;;;;;;16.74;76.31;98389.44;7353284;19;20027;-63
2023/07/15 03:35:04;;;;;;;0.10;0.10;;;;;;;16.71;76.48;98394.94;7354501;19;20014;-63
2023/07/15 03:37:33;;;;;;;0.10;0.10;;;;;;;16.72;76.64;98399.25;7358055;19;20137;-63
2023/07/15 03:39:59;;;;;;;0.10;0.10;;;;;;;16.68;76.74;98397.00;7356493;19;20006;-63
2023/07/15 03:42:25;;;;;;;0.00;0.00;;;;;;;16.65;76.55;98384.06;7356410;19;20024;-63
2023/07/15 03:44:51;;;;;;;0.10;0.10;;;;;;;16.58;76.76;98375.84;7357712;19;20462;-63
2023/07/15 03:47:16;;;;;;;0.10;0.10;;;;;;;16.65;76.68;98384.06;7354697;19;20031;-63
2023/07/15 03:49:43;;;;;;;0.10;0.10;;;;;;;16.63;76.70;98372.81;7351296;19;20022;-62
2023/07/15 03:52:09;;;;;;;0.10;0.10;;;;;;;16.64;76.52;98391.13;7355206;19;20092;-59
2023/07/15 03:54:35;;;;;;;0.10;0.10;;;;;;;16.65;77.05;98390.16;7357020;19;20504;-63
2023/07/15 03:57:00;;;;;;;0.10;0.10;;;;;;;16.65;76.45;98387.53;7354087;19;20026;-60
2023/07/15 03:59:25;;;;;;;0.10;0.10;;;;;;;16.64;77.05;98390.31;7357043;19;20011;-63
2023/07/15 04:01:51;;;;;;;0.10;0.10;;;;;;;16.62;76.68;98382.50;7350713;19;20916;-62
2023/07/15 04:04:16;;;;;;;0.10;0.10;;;;;;;16.61;76.38;98386.09;7356781;19;20010;-62
2023/07/15 04:06:43;;;;;;;0.10;0.10;;;;;;;16.57;76.46;98382.06;7351678;19;20018;-63
2023/07/15 04:09:11;;;;;;;0.00;0.00;;;;;;;16.62;76.58;98393.03;7353342;19;20021;-63
2023/07/15 04:11:38;;;;;;;0.10;0.10;;;;;;;16.62;76.40;98395.69;7348339;19;20014;-62
2023/07/15 04:14:03;;;;;;;0.10;0.10;;;;;;;16.50;76.37;98358.03;7352981;19;20010;-63
2023/07/15 04:16:29;;;;;;;0.03;0.03;;;;;;;16.49;76.54;98358.19;7356893;19;20034;-62
2023/07/15 04:18:55;;;;;;;0.10;0.10;;;;;;;16.52;76.32;98363.16;7350600;19;20029;-63
2023/07/15 04:21:21;;;;;;;0.10;0.10;;;;;;;16.63;76.48;98376.28;7352645;19;20042;-63
2023/07/15 04:23:47;;;;;;;0.10;0.10;;;;;;;16.63;76.09;98384.19;7353584;19;20999;-63
2023/07/15 04:26:12;;;;;;;0.10;0.10;;;;;;;16.63;76.42;98389.47;7355687;19;20104;-63
2023/07/15 04:28:37;;;;;;;0.10;0.10;;;;;;;16.62;76.15;98382.50;7348893;19;20018;-63
2023/07/15 04:31:03;;;;;;;0.10;0.10;;;;;;;16.57;75.92;98369.75;7356674;19;20046;-62
2023/07/15 04:33:28;;;;;;;0.10;0.10;;;;;;;16.62;75.99;98379.88;7350624;19;20018;-63
2023/07/15 04:35:54;;;;;;;0.10;0.10;;;;;;;16.49;76.33;98350.28;7354201;19;20028;-62
2023/07/15 04:38:21;;;;;;;0.10;0.10;;;;;;;16.64;76.73;98380.59;7352904;19;20069;-63
2023/07/15 04:40:47;;;;;;;0.10;0.10;;;;;;;16.64;75.83;98370.06;7353617;19;20315;-63
2023/07/15 04:43:12;;;;;;;0.10;0.10;;;;;;;16.65;76.00;98382.25;7354500;19;20011;-63
2023/07/15 04:45:37;;;;;;;0.10;0.10;;;;;;;16.65;75.81;98374.34;7350675;19;20565;-62
2023/07/15 04:48:03;;;;;;;0.10;0.10;;;;;;;16.66;76.02;98370.75;7355471;19;20042;-63
2023/07/15 04:50:29;;;;;;;0.10;0.10;;;;;;;16.67;75.65;98368.94;7344888;19;20018;-63
2023/07/15 04:52:54;;;;;;;0.10;0.10;;;;;;;16.66;75.68;98383.91;7352857;19;20018;-63
2023/07/15 04:55:20;;;;;;;0.10;0.10;;;;;;;16.66;75.66;98373.38;7347363;19;20018;-62
2023/07/15 04:57:46;;;;;;;0.00;0.00;;;;;;;16.61;75.39;98354.50;7354141;19;20015;-63
2023/07/15 05:00:12;;;;;;;0.10;0.10;;;;;;;16.66;75.11;98359.38;7341717;19;20093;-62
2023/07/15 05:02:38;;;;;;;0.10;0.10;;;;;;;16.54;75.78;98345.44;7349869;19;20007;-63
2023/07/15 05:05:05;;;;;;;0.10;0.10;;;;;;;16.66;75.17;98362.84;7348949;19;20002;-63
2023/07/15 05:07:31;;;;;;;0.10;0.10;;;;;;;16.68;75.24;98366.19;7354188;19;20736;-63
2023/07/15 05:09:57;;;;;;;0.10;0.10;;;;;;;16.69;75.58;98370.50;7352057;19;20385;-63
2023/07/15 05:12:26;;;;;;;0.10;0.10;;;;;;;16.67;74.86;98364.50;7353108;19;20002;-63
2023/07/15 05:14:52;;;;;;;0.10;0.10;;;;;;;16.66;74.54;98362.84;7350426;19;20010;-62
2023/07/15 05:17:17;;;;;;;0.10;0.10;;;;;;;16.58;74.63;98344.22;7354516;19;20022;-63
2023/07/15 05:19:42;;;;;;;0.10;0.10;;;;;;;16.61;75.17;98346.59;7351159;19;20103;-63
2023/07/15 05:22:08;;;;;;;0.10;0.10;;;;;;;16.63;75.07;98347.31;7354654;19;20006;-63
2023/07/15 05:24:33;;;;;;;0.10;0.10;;;;;;;16.59;74.80;98348.53;7348660;19;20018;-63
2023/07/15 05:26:58;;;;;;;0.00;0.00;;;;;;;16.63;75.20;98346.47;7351222;19;20031;-63
2023/07/15 05:29:24;;;;;;;0.03;0.03;;;;;;;16.64;75.79;98353.41;7355608;19;20025;-63
2023/07/15 05:31:50;;;;;;;0.10;0.10;;;;;;;16.53;75.29;98330.63;7350095;19;20014;-63
2023/07/15 05:34:15;;;;;;;0.10;0.10;;;;;;;16.60;74.82;98337.00;7357305;19;20006;-63
2023/07/15 05:36:41;;;;;;;0.10;0.10;;;;;;;16.59;74.57;98344.09;7357418;19;20423;-63
2023/07/15 05:39:06;;;;;;;0.10;0.10;;;;;;;16.60;74.61;98347.56;7359037;19;20033;-62
2023/07/15 05:41:32;;;;;;;0.10;0.10;;;;;;;16.62;75.03;98324.53;7356419;19;20014;-63
2023/07/15 05:43:57;;;;;;;0.10;0.10;;;;;;;16.64;74.82;98335.81;7357772;19;20855;-63
2023/07/15 05:46:22;;;;;;;0.10;0.10;;;;;;;16.68;74.86;98325.84;7356687;19;20817;-62
2023/07/15 05:48:48;;;;;;;0.10;0.10;;;;;;;16.70;74.54;98337.06;7359289;19;20018;-62
2023/07/15 05:51:13;;;;;;;0.10;0.10;;;;;;;16.74;74.75;98327.97;7357574;19;20018;-63
2023/07/15 05:53:41;;;;;;;0.10;0.10;;;;;;;16.78;74.23;98332.84;7358975;19;20025;-61
2023/07/15 05:56:07;;;;;;;0.10;0.10;;;;;;;16.83;74.18;98322.75;7357164;19;20018;-63
2023/07/15 05:58:32;;;;;;;0.10;0.10;;;;;;;16.86;74.25;98317.19;7354332;19;20583;-63
2023/07/15 06:00:58;;;;;;;0.10;0.10;;;;;;;16.91;73.46;98329.16;7357408;19;20014;-63
2023/07/15 06:03:25;;;;;;;0.08;0.08;;;;;;;16.94;74.44;98324.44;7358602;19;20025;-64
2023/07/15 06:05:50;;;;;;;;;;;;;;;17.02;75.36;98300.03;7356920;19;20010;-63
2023/07/15 06:08:16;;;;;;;0.10;0.10;;;;;;;17.01;74.07;98319.47;7355427;19;20841;-63
2023/07/15 06:10:42;;;;;;;0.10;0.10;;;;;;;17.03;73.87;98313.13;7357720;19;20493;-63
2023/07/15 06:13:08;;;;;;;0.10;0.10;;;;;;;17.06;74.10;98318.09;7355490;19;20038;-63
2023/07/15 06:15:35;;;;;;;0.10;0.10;;;;;;;17.03;73.61;98286.75;7356611;19;20015;-63
2023/07/15 06:18:01;;;;;;;0.10;0.10;;;;;;;17.11;73.29;98299.25;7354576;19;20492;-63
2023/07/15 06:20:27;;;;;;;0.10;0.10;;;;;;;17.10;73.57;98300.22;7356889;19;20014;-63
2023/07/15 06:22:53;;;;;;;0.10;0.10;;;;;;;17.15;73.13;98300.66;7356004;19;20014;-62
2023/07/15 06:25:18;;;;;;;0.10;0.10;;;;;;;17.16;73.12;98296.19;7357512;19;20054;-63
2023/07/15 06:27:44;;;;;;;0.10;0.10;;;;;;;17.15;73.39;98297.19;7355541;19;20024;-62
2023/07/15 06:30:10;;;;;;;0.10;0.10;;;;;;;17.16;72.71;98291.75;7357700;19;20942;-63
2023/07/15 06:32:36;;;;;;;0.10;0.10;;;;;;;17.24;72.82;98297.19;7356611;19;20609;-62
2023/07/15 06:35:02;;;;;;;0.10;0.10;;;;;;;17.28;73.16;98288.03;7355795;19;20463;-63
2023/07/15 06:37:27;;;;;;;0.10;0.10;;;;;;;17.35;74.04;98281.25;7354239;19;20018;-63
2023/07/15 06:39:53;;;;;;;0.10;0.10;;;;;;;17.38;73.59;98285.41;7356751;19;20025;-63
2023/07/15 06:42:18;;;;;;;0.10;0.10;;;;;;;17.41;73.03;98285.13;7349904;19;20018;-63
2023/07/15 06:44:44;;;;;;;0.10;0.10;;;;;;;17.42;73.21;98270.13;7354884;19;20014;-63
2023/07/15 06:47:09;;;;;;;0.10;0.10;;;;;;;17.48;72.41;98290.69;7350532;19;20046;-63
2023/07/15 06:49:34;;;;;;;0.10;0.10;;;;;;;17.52;72.53;98297.38;7358874;19;20473;-63
2023/07/15 06:52:00;;;;;;;0.10;0.10;;;;;;;17.52;71.10;98286.81;7352440;19;20014;-62
2023/07/15 06:54:29;;;;;;;0.10;0.10;;;;;;;17.53;71.28;98283.19;7357515;19;20364;-63
2023/07/15 06:56:54;;;;;;;0.10;0.10;;;;;;;17.44;71.97;98268.22;7351312;19;20027;-63
2023/07/15 06:59:20;;;;;;;0.10;0.10;;;;;;;17.54;71.24;98280.44;7357448;19;20090;-62
2023/07/15 07:01:45;;;;;;;0.10;0.10;;;;;;;17.57;73.01;98289.88;7351728;19;20010;-62
2023/07/15 07:04:11;;;;;;;0.10;0.10;;;;;;;17.58;71.26;98280.97;7351591;19;20038;-63
2023/07/15 07:06:36;;;;;;;0.10;0.10;;;;;;;17.60;71.80;98279.06;7353712;19;20909;-59
2023/07/15 07:09:01;;;;;;;0.10;0.10;;;;;;;17.58;72.57;98259.88;7354800;19;20018;-63
2023/07/15 07:11:27;;;;;;;0.10;0.10;;;;;;;17.67;72.09;98274.88;7354111;19;20516;-63
2023/07/15 07:13:52;;;;;;;0.10;0.10;;;;;;;17.57;72.36;98240.56;7353121;19;21630;-62
2023/07/15 07:16:18;;;;;;;0.10;0.10;;;;;;;17.77;72.17;98275.75;7355152;19;20433;-62
2023/07/15 07:18:44;;;;;;;0.10;0.10;;;;;;;17.77;71.99;98275.75;7353799;19;20013;-62
2023/07/15 07:21:10;;;;;;;0.00;0.00;;;;;;;17.72;72.86;98256.81;7356530;19;20797;-62
2023/07/15 07:23:36;;;;;;;0.10;0.10;;;;;;;17.79;73.39;98275.59;7352523;19;20002;-62
2023/07/15 07:26:02;;;;;;;0.10;0.10;;;;;;;17.75;73.53;98258.38;7353442;19;20462;-62
2023/07/15 07:28:40;;;;;;;0.10;0.10;;;;;;;17.84;73.56;98268.94;7353141;19;20014;-62
2023/07/15 07:31:06;;;;;;;0.10;0.10;;;;;;;17.74;73.56;98252.28;7343972;19;20473;-62
2023/07/15 07:33:31;;;;;;;0.10;0.10;;;;;;;17.77;73.19;98273.09;7349941;19;19998;-62
2023/07/15 07:35:56;;;;;;;0.10;0.10;;;;;;;17.71;72.86;98265.72;7348937;19;20033;-62
2023/07/15 07:38:22;;;;;;;0.15;0.15;;;;;;;17.60;73.31;98269.34;7351377;19;20030;-62
2023/07/15 07:40:47;;;;;;;0.10;0.10;;;;;;;17.51;72.62;98269.31;7355199;19;20022;-63
2023/07/15 07:43:13;;;;;;;0.10;0.10;;;;;;;17.38;72.95;98267.75;7348146;19;20827;-64
2023/07/15 07:45:38;;;;;;;0.00;0.00;;;;;;;17.24;73.89;98257.63;7351705;19;20120;-64
2023/07/15 07:48:04;;;;;;;0.10;0.10;;;;;;;17.06;74.91;98252.19;7352074;19;20066;-65
2023/07/15 07:50:29;;;;;;;0.00;0.00;;;;;;;16.96;75.42;98255.75;7356515;19;20486;-64
2023/07/15 07:52:55;;;;;;;0.10;0.10;;;;;;;16.74;75.37;98233.94;7349871;19;20028;-64
2023/07/15 07:55:20;;;;;;;0.10;0.10;;;;;;;16.71;75.96;98244.72;7352095;19;20022;-63
2023/07/15 07:57:45;;;;;;;0.10;0.10;;;;;;;16.56;75.60;98246.84;7351985;19;20013;-64
2023/07/15 08:00:11;;;;;;;0.10;0.10;;;;;;;16.49;76.02;98237.00;7356700;19;20011;-63
2023/07/15 08:02:37;;;;;;;0.10;0.10;;;;;;;16.41;76.26;98236.81;7353492;19;20018;-64
2023/07/15 08:05:04;;;;;;;0.10;0.10;;;;;;;16.28;77.38;98232.59;7351122;19;20617;-64
2023/07/15 08:07:29;;;;;;;0.00;0.00;;;;;;;16.20;76.57;98237.69;7354102;19;20014;-64
2023/07/15 08:09:54;;;;;;;0.10;0.10;;;;;;;16.15;76.77;98231.97;7356285;19;20026;-64
2023/07/15 08:12:20;;;;;;;0.10;0.10;;;;;;;16.08;76.92;98225.56;7350829;19;20365;-63
2023/07/15 08:14:45;;;;;;;0.10;0.10;;;;;;;16.02;78.12;98220.84;7361088;19;20014;-64
2023/07/15 08:17:11;;;;;;;0.13;0.13;;;;;;;15.96;77.67;98237.13;7356536;19;20014;-64
2023/07/15 08:19:36;;;;;;;0.10;0.10;;;;;;;15.91;77.78;98226.13;7355044;19;20025;-64
2023/07/15 08:22:01;;;;;;;0.10;0.10;;;;;;;15.87;76.98;98225.59;7354729;19;20019;-64
2023/07/15 08:24:27;;;;;;;0.10;0.10;;;;;;;15.81;77.83;98218.19;7330995;19;20010;-64
2023/07/15 08:26:52;;;;;;;0.05;0.05;;;;;;;15.75;77.79;98209.00;7338017;19;20605;-64
2023/07/15 08:29:18;;;;;;;0.10;0.10;;;;;;;15.71;77.32;98243.59;7349759;19;20017;-64
2023/07/15 08:31:43;;;;;;;0.10;0.10;;;;;;;15.65;79.02;98216.00;7352024;19;20700;-63
2023/07/15 08:34:09;;;;;;;0.00;0.00;;;;;;;15.60;78.36;98215.50;7350886;19;20575;-64
2023/07/15 08:36:36;;;;;;;0.10;0.10;;;;;;;15.60;77.78;98219.94;7349568;19;20035;-61
2023/07/15 08:39:02;;;;;;;0.00;0.00;;;;;;;15.56;78.54;98219.34;7352691;19;20023;-64
2023/07/15 08:41:27;;;;;;;0.10;0.10;;;;;;;15.39;78.59;98198.88;7350757;19;20018;-63
2023/07/15 08:43:53;;;;;;;0.10;0.10;;;;;;;15.49;78.76;98212.94;7350795;19;20435;-64
2023/07/15 08:46:27;;;;;;;0.10;0.10;;;;;;;15.48;78.75;98208.66;7351729;19;20370;-64
2023/07/15 08:48:53;;;;;;;0.10;0.10;;;;;;;15.44;79.91;98204.59;7345712;19;20014;-64
2023/07/15 08:51:22;;;;;;;0.10;0.10;;;;;;;15.37;80.36;98195.56;7338103;19;20033;-64
2023/07/15 08:53:48;;;;;;;0.10;0.10;;;;;;;15.37;80.23;98198.19;7348901;19;20007;-63
2023/07/15 08:56:14;;;;;;;0.10;0.10;;;;;;;15.44;79.99;98220.38;7347991;19;20554;-64
2023/07/15 08:58:41;;;;;;;0.10;0.10;;;;;;;15.47;79.71;98214.88;7350459;19;20358;-65
2023/07/15 09:01:06;;;;;;;0.10;0.10;;;;;;;15.46;80.13;98207.91;7351898;19;20026;-64
2023/07/15 09:03:32;;;;;;;0.10;0.10;;;;;;;15.46;80.09;98200.03;7348011;19;20015;-64
2023/07/15 09:05:57;;;;;;;0.10;0.10;;;;;;;15.46;80.44;98202.66;7348741;19;20014;-64
2023/07/15 09:08:25;;;;;;;0.10;0.10;;;;;;;15.50;80.20;98204.09;7352942;19;20037;-64
2023/07/15 09:10:54;;;;;;;;;;;;;;;15.53;79.67;98203.84;7355977;19;20014;-66
2023/07/15 09:13:23;;;;;;;0.10;0.10;;;;;;;15.52;80.52;98203.00;7354868;19;19923;-65
2023/07/15 09:15:48;;;;;;;0.10;0.10;;;;;;;15.52;80.56;98196.91;7355117;19;20019;-64
2023/07/15 09:18:14;;;;;;;0.10;0.10;;;;;;;15.55;80.88;98213.25;7356299;19;20062;-65
2023/07/15 09:20:40;;;;;;;0.10;0.10;;;;;;;15.57;80.22;98205.25;7355947;19;20006;-64
2023/07/15 09:23:06;;;;;;;0.10;0.10;;;;;;;15.44;81.14;98188.81;7359063;19;20082;-65
2023/07/15 09:25:31;;;;;;;0.05;0.05;;;;;;;15.55;80.58;98196.66;7354951;19;20466;-64
2023/07/15 09:27:57;;;;;;;0.10;0.10;;;;;;;15.56;80.80;98207.06;7357414;19;20887;-64
2023/07/15 09:30:23;;;;;;;0.08;0.08;;;;;;;15.56;81.08;98188.66;7353329;19;20015;-64
2023/07/15 09:32:49;;;;;;;0.10;0.10;;;;;;;15.60;81.23;98198.91;7356730;19;21026;-64
2023/07/15 09:35:14;;;;;;;0.00;0.00;;;;;;;15.62;81.11;98207.50;7348800;19;20029;-63
2023/07/15 09:37:40;;;;;;;0.10;0.10;;;;;;;15.62;81.31;98194.38;7359905;19;20011;-64
2023/07/15 09:40:07;;;;;;;0.10;0.10;;;;;;;15.63;81.32;98186.38;7356648;19;20018;-63
2023/07/15 09:42:53;;;;;;;0.10;0.10;;;;;;;15.69;81.10;98182.38;7357106;19;20007;-64
2023/07/15 09:45:38;;;;;;;0.10;0.10;;;;;;;15.70;81.56;98184.88;7356005;19;20025;-64
2023/07/15 09:48:08;;;;;;;0.10;0.10;;;;;;;15.75;81.77;98187.94;7357908;19;20007;-64
2023/07/15 09:50:35;;;;;;;0.10;0.10;;;;;;;15.78;81.95;98177.19;7338371;19;20014;-64
2023/07/15 09:53:03;;;;;;;0.10;0.10;;;;;;;15.83;81.71;98190.78;7357449;19;20015;-64
2023/07/15 09:55:30;;;;;;;0.10;0.10;;;;;;;15.87;82.00;98170.31;7354707;19;20014;-64
2023/07/15 09:58:08;;;;;;;0.10;0.10;;;;;;;15.93;81.47;98180.31;7357990;19;20031;-63
2023/07/15 10:00:35;;;;;;;0.10;0.10;;;;;;;15.93;81.57;98179.50;7354227;19;20453;-64
2023/07/15 10:03:02;;;;;;;0.10;0.10;;;;;;;15.93;81.82;98158.44;7358588;19;20019;-64
2023/07/15 10:05:28;;;;;;;0.10;0.10;;;;;;;15.97;81.48;98176.47;7356008;19;20474;-64
2023/07/15 10:07:55;;;;;;;0.10;0.10;;;;;;;16.00;81.90;98185.88;7359735;19;22265;-64
2023/07/15 10:10:21;;;;;;;0.10;0.10;;;;;;;16.03;81.61;98180.38;7354093;19;20053;-64
2023/07/15 10:12:48;;;;;;;0.15;0.15;;;;;;;16.02;82.02;98173.44;7354073;19;20015;-64
2023/07/15 10:15:14;;;;;;;0.10;0.10;;;;;;;16.04;81.80;98163.59;7355248;19;20011;-63
2023/07/15 10:17:39;;;;;;;0.10;0.10;;;;;;;16.02;82.04;98149.75;7357619;19;20014;-63
2023/07/15 10:20:10;;;;;;;0.10;0.10;;;;;;;16.12;82.12;98207.69;7337076;19;20029;-64
2023/07/15 10:22:36;;;;;;;0.10;0.10;;;;;;;16.14;82.27;98177.66;7354037;19;20010;-64
2023/07/15 10:25:03;;;;;;;0.10;0.10;;;;;;;16.17;82.13;98174.75;7354560;19;20038;-64
2023/07/15 10:27:30;;;;;;;0.10;0.10;;;;;;;16.18;82.22;98162.44;7354604;19;20013;-64
2023/07/15 10:30:15;;;;;;;0.10;0.10;;;;;;;16.24;81.71;98186.44;7356353;19;20026;-64
2023/07/15 10:33:05;;;;;;;0.10;0.10;;;;;;;16.24;81.74;98175.91;7358135;19;21070;-64
2023/07/15 10:35:32;;;;;;;0.10;0.10;;;;;;;16.23;82.39;98166.34;7353826;19;20081;-64
2023/07/15 10:38:28;;;;;;;0.10;0.10;;;;;;;16.27;81.96;98167.75;7358215;19;22556;-64
2023/07/15 10:41:00;;;;;;;0.10;0.10;;;;;;;16.28;82.13;98172.03;7247392;19;2004459;-64
2023/07/15 10:43:34;;;;;;;0.10;0.10;;;;;;;16.31;82.23;98169.13;7351142;19;20010;-63
2023/07/15 10:46:02;;;;;;;0.10;0.10;;;;;;;16.34;82.33;98160.13;7349760;19;20021;-64
2023/07/15 10:48:28;;;;;;;0.10;0.10;;;;;;;16.32;81.80;98167.31;7351139;19;20006;-64
2023/07/15 10:50:55;;;;;;;0.03;0.03;;;;;;;16.33;82.27;98175.09;7350000;19;20039;-64
2023/07/15 10:53:29;;;;;;;0.10;0.10;;;;;;;16.37;81.78;98172.19;7348240;19;20034;-63
2023/07/15 10:55:57;;;;;;;0.10;0.10;;;;;;;16.40;81.84;98171.94;7350329;19;20027;-64
2023/07/15 10:58:22;;;;;;;0.00;0.00;;;;;;;16.23;82.10;98153.16;7350300;19;20014;-64
2023/07/15 11:00:48;;;;;;;0.10;0.10;;;;;;;16.38;81.77;98173.88;7352352;19;20014;-64
2023/07/15 11:03:15;;;;;;;0.10;0.10;;;;;;;16.35;82.47;98181.06;7353135;19;20360;-64
2023/07/15 11:05:43;;;;;;;0.10;0.10;;;;;;;16.29;82.38;98163.16;7349477;19;20010;-64
2023/07/15 11:08:09;;;;;;;0.10;0.10;;;;;;;16.42;82.26;98180.53;7349855;19;20053;-64
2023/07/15 11:10:35;;;;;;;0.10;0.10;;;;;;;16.40;82.54;98177.19;7348732;19;20546;-65
2023/07/15 11:13:17;;;;;;;0.10;0.10;;;;;;;16.45;82.55;98175.00;7345859;19;20583;-65
2023/07/15 11:15:46;;;;;;;0.10;0.10;;;;;;;16.39;82.72;98165.00;7348880;19;20740;-59
2023/07/15 11:18:18;;;;;;;0.10;0.10;;;;;;;16.52;82.85;98184.03;7349480;19;20086;-58
2023/07/15 11:20:50;;;;;;;0.10;0.10;;;;;;;16.59;82.60;98193.06;7348777;19;20018;-58
2023/07/15 11:23:16;;;;;;;0.10;0.10;;;;;;;16.54;82.65;98180.31;7348481;19;20006;-59
2023/07/15 11:25:41;;;;;;;0.10;0.10;;;;;;;16.64;82.78;98190.88;7348642;19;20036;-59
2023/07/15 11:28:07;;;;;;;0.10;0.10;;;;;;;16.67;82.65;98179.22;7347806;19;20125;-59
2023/07/15 11:30:44;;;;;;;0.10;0.10;;;;;;;16.73;82.59;98179.56;7346393;19;20039;-58
2023/07/15 11:33:10;;;;;;;0.10;0.10;;;;;;;16.72;82.66;98192.84;7348098;19;20538;-59
2023/07/15 11:35:37;;;;;;;0.10;0.10;;;;;;;16.75;82.94;98193.41;7341695;19;20006;-58